Time;durP1;ratioP1;P1;durP2;ratioP2;P2;SDS_P1;SDS_P2;PMS_P1;PMS_P2;Temp;Humidity;BMP_temperature;BMP_pressure;BME280_temperature;BME280_humidity;BME280_pressure;Samples;Min_cycle;Max_cycle;Signal;HPM_P1;HPM_P2
2022/05/26 00:01:22;;;;;;;10.95;5.90;;;;;;;21.39;50.59;101749.38;5085437;28;20123;-52
2022/05/26 00:03:50;;;;;;;12.60;5.65;;;;;;;21.38;50.83;101748.50;5078488;28;20040;-53
2022/05/26 00:06:20;;;;;;;12.07;4.88;;;;;;;21.39;50.95;101746.69;5081886;28;20079;-53
2022/05/26 00:08:47;;;;;;;9.10;4.95;;;;;;;21.39;51.00;101746.69;5077268;28;20060;-53
2022/05/26 00:11:18;;;;;;;14.82;6.22;;;;;;;21.39;50.77;101760.16;5079595;28;20046;-53
2022/05/26 00:13:44;;;;;;;11.15;5.20;;;;;;;21.39;51.01;101754.75;5079835;28;20044;-53
2022/05/26 00:16:14;;;;;;;11.27;5.20;;;;;;;21.39;50.74;101754.75;5080835;28;20047;-53
2022/05/26 00:18:40;;;;;;;12.20;5.93;;;;;;;21.39;51.09;101760.16;5080701;28;20064;-54
2022/05/26 00:21:07;;;;;;;12.35;5.25;;;;;;;21.38;51.06;101761.13;5082580;28;20393;-53
2022/05/26 00:23:33;;;;;;;9.82;5.72;;;;;;;21.36;51.23;101755.91;5077447;28;20482;-53
2022/05/26 00:26:00;;;;;;;9.63;5.22;;;;;;;21.37;51.03;101754.91;5081096;28;20343;-53
2022/05/26 00:28:27;;;;;;;9.43;4.85;;;;;;;21.37;50.77;101756.75;5080514;28;20044;-55
2022/05/26 00:30:54;;;;;;;12.75;5.25;;;;;;;21.37;50.98;101764.84;5078658;28;20045;-53
2022/05/26 00:33:20;;;;;;;11.10;5.25;;;;;;;21.36;50.59;101755.91;5080535;28;20127;-53
2022/05/26 00:35:47;;;;;;;12.07;5.15;;;;;;;21.36;51.13;101753.22;5078985;28;22076;-52
2022/05/26 00:38:14;;;;;;;8.88;4.97;;;;;;;21.36;50.81;101761.31;5074919;28;20126;-55
2022/05/26 00:40:43;;;;;;;11.70;5.82;;;;;;;21.36;50.88;101761.31;5079914;28;20351;-54
2022/05/26 00:43:11;;;;;;;9.93;4.93;;;;;;;21.37;51.10;101756.75;5077732;28;20037;-54
2022/05/26 00:45:56;;;;;;;8.70;4.40;;;;;;;21.35;50.68;101758.78;5080724;28;20055;-54
2022/05/26 00:48:26;;;;;;;10.02;4.80;;;;;;;21.37;51.15;101767.53;5075732;28;20051;-54
2022/05/26 00:50:59;;;;;;;13.18;5.25;;;;;;;21.36;51.31;101761.31;5080888;28;20044;-53
2022/05/26 00:54:01;;;;;;;10.85;5.07;;;;;;;21.34;51.48;101762.44;5080326;28;20050;-53
2022/05/26 00:56:33;;;;;;;8.52;4.65;;;;;;;21.36;50.71;101763.16;5035636;28;20044;-55
2022/05/26 00:59:27;;;;;;;9.57;5.15;;;;;;;21.35;51.02;101764.16;5074448;28;20040;-53
2022/05/26 01:01:55;;;;;;;11.53;6.03;;;;;;;21.35;50.91;101772.25;5077115;28;20036;-52
2022/05/26 01:04:27;;;;;;;12.27;5.00;;;;;;;21.34;51.04;101771.38;5078999;28;20773;-53
2022/05/26 01:07:14;;;;;;;9.20;4.63;;;;;;;21.33;50.69;101779.63;5080389;28;20040;-54
2022/05/26 01:09:40;;;;;;;7.95;4.80;;;;;;;21.33;51.21;101777.78;5080520;28;20327;-52
2022/05/26 01:12:07;;;;;;;11.68;5.10;;;;;;;21.34;51.08;101778.63;5082380;28;20062;-53
2022/05/26 01:14:48;;;;;;;10.35;4.65;;;;;;;21.32;50.96;101780.59;5082067;28;20430;-54
2022/05/26 01:17:24;;;;;;;9.68;4.43;;;;;;;21.32;50.77;101783.31;5080533;28;20066;-53
2022/05/26 01:20:22;;;;;;;9.20;4.78;;;;;;;21.32;51.17;101786.88;5078066;28;20044;-54
2022/05/26 01:23:03;;;;;;;9.57;4.53;;;;;;;21.32;51.26;101794.09;5078939;28;20507;-54
2022/05/26 01:26:18;;;;;;;12.45;4.45;;;;;;;21.32;51.47;101791.41;5077913;28;20135;-54
2022/05/26 01:29:00;;;;;;;8.32;4.45;;;;;;;21.32;51.14;101794.09;5075618;28;20044;-54
2022/05/26 01:31:43;;;;;;;8.45;4.75;;;;;;;21.31;50.88;101801.34;5079091;28;20059;-53
2022/05/26 01:34:38;;;;;;;9.83;4.53;;;;;;;21.30;50.85;101786.13;5076248;28;20056;-52
2022/05/26 01:37:10;;;;;;;10.25;4.45;;;;;;;21.32;50.84;101786.00;5080530;28;20482;-54
2022/05/26 01:39:50;;;;;;;9.48;4.35;;;;;;;21.31;50.98;101792.41;5073084;28;20036;-54
2022/05/26 01:42:18;;;;;;;9.82;4.38;;;;;;;21.31;51.55;101800.50;5073873;28;20060;-54
2022/05/26 01:44:53;;;;;;;8.70;3.97;;;;;;;21.30;51.09;101801.47;5075399;28;20069;-55
2022/05/26 01:47:42;;;;;;;11.82;4.22;;;;;;;21.31;51.23;101803.19;5079111;28;20585;-53
2022/05/26 01:50:19;;;;;;;9.60;4.55;;;;;;;21.31;51.09;101808.59;5077828;28;20047;-52
2022/05/26 01:53:06;;;;;;;9.52;3.92;;;;;;;21.29;51.51;101808.72;5074635;28;20171;-53
2022/05/26 01:56:05;;;;;;;9.00;4.10;;;;;;;21.29;51.50;101813.25;5078668;28;20421;-52
2022/05/26 01:58:45;;;;;;;9.35;4.43;;;;;;;21.28;51.04;101808.88;5082746;28;20377;-54
2022/05/26 02:01:20;;;;;;;9.38;4.38;;;;;;;21.30;51.41;101810.41;5076858;28;20352;-53
2022/05/26 02:03:49;;;;;;;10.27;4.55;;;;;;;21.30;51.29;101814.97;5074465;28;20454;-53
2022/05/26 02:06:22;;;;;;;8.35;3.85;;;;;;;21.29;50.84;101810.56;5077528;28;20051;-52
2022/05/26 02:08:57;;;;;;;8.02;3.88;;;;;;;21.29;51.00;101819.50;5076859;28;20048;-52
2022/05/26 02:11:24;;;;;;;8.00;4.43;;;;;;;21.30;51.01;101821.19;5079964;28;20048;-52
2022/05/26 02:13:57;;;;;;;10.60;4.50;;;;;;;21.29;51.19;101824.91;5076428;28;20070;-54
2022/05/26 02:16:48;;;;;;;6.20;3.57;;;;;;;21.27;51.59;101826.91;5078851;28;20048;-55
2022/05/26 02:19:21;;;;;;;9.52;3.70;;;;;;;21.28;51.27;101827.75;5075914;28;20146;-54
2022/05/26 02:22:07;;;;;;;9.87;4.10;;;;;;;21.26;51.46;101825.19;5073540;28;20046;-54
2022/05/26 02:24:46;;;;;;;7.53;3.55;;;;;;;21.27;51.41;101828.75;5077707;28;20139;-54
2022/05/26 02:27:12;;;;;;;8.60;3.90;;;;;;;21.29;51.14;101832.13;5079770;28;20451;-54
2022/05/26 02:29:51;;;;;;;6.97;3.63;;;;;;;21.28;51.39;101830.44;5074841;28;20048;-52
2022/05/26 02:32:22;;;;;;;10.38;4.38;;;;;;;21.27;51.45;101839.56;5077518;28;20423;-54
2022/05/26 02:34:52;;;;;;;9.95;3.88;;;;;;;21.28;51.51;101843.94;5077576;28;20043;-52
2022/05/26 02:37:20;;;;;;;10.30;4.07;;;;;;;21.27;51.10;101837.69;5077823;28;20032;-53
2022/05/26 02:39:47;;;;;;;8.32;3.63;;;;;;;21.26;51.38;101849.47;5076877;28;20036;-53
2022/05/26 02:42:14;;;;;;;7.85;3.35;;;;;;;21.28;51.33;101846.63;5084467;28;20053;-52
2022/05/26 02:44:42;;;;;;;8.63;3.97;;;;;;;21.26;51.48;101851.31;5082935;28;20048;-53
2022/05/26 02:47:56;;;;;;;5.88;3.30;;;;;;;21.24;51.28;101854.16;5085725;28;20043;-54
2022/05/26 02:50:55;;;;;;;11.13;4.10;;;;;;;21.24;51.82;101853.31;5079443;28;20592;-54
2022/05/26 02:53:34;;;;;;;8.40;3.53;;;;;;;21.23;51.24;101857.88;5082917;28;20051;-52
2022/05/26 02:56:30;;;;;;;9.60;3.83;;;;;;;21.23;51.33;101855.19;5086194;28;20055;-53
2022/05/26 02:59:20;;;;;;;9.35;3.20;;;;;;;21.22;51.56;101855.31;5079933;28;20066;-53
2022/05/26 03:01:58;;;;;;;10.77;3.55;;;;;;;21.21;51.32;101862.56;5084125;28;20622;-53
2022/05/26 03:04:35;;;;;;;7.50;3.70;;;;;;;21.22;51.68;101856.16;5080284;28;20079;-52
2022/05/26 03:07:07;;;;;;;8.05;3.47;;;;;;;21.21;51.55;101862.56;5081900;28;20052;-53
2022/05/26 03:09:36;;;;;;;11.15;3.33;;;;;;;21.20;51.70;101872.50;5081823;28;20062;-54
2022/05/26 03:12:03;;;;;;;7.15;3.50;;;;;;;21.20;51.59;101863.56;5085681;28;20044;-53
2022/05/26 03:14:30;;;;;;;9.13;3.50;;;;;;;21.20;51.76;101864.41;5080019;28;20048;-54
2022/05/26 03:16:56;;;;;;;9.05;3.40;;;;;;;21.20;51.17;101866.25;5083284;28;20044;-54
2022/05/26 03:19:23;;;;;;;6.95;3.35;;;;;;;21.19;51.40;101865.41;5081316;28;20065;-53
2022/05/26 03:21:52;;;;;;;7.10;3.20;;;;;;;21.18;51.40;101869.09;5080647;28;20044;-54
2022/05/26 03:24:18;;;;;;;8.30;3.42;;;;;;;21.19;51.55;101869.97;5078972;28;20051;-54
2022/05/26 03:26:45;;;;;;;6.82;3.17;;;;;;;21.18;51.49;101868.22;5079150;28;20062;-53
2022/05/26 03:29:11;;;;;;;6.45;3.33;;;;;;;21.18;51.43;101869.09;5078654;28;20127;-53
2022/05/26 03:31:38;;;;;;;8.32;3.30;;;;;;;21.18;51.54;101876.31;5083201;28;20231;-53
2022/05/26 03:42:20;;;;;;;6.93;2.72;;;;;;;21.18;51.54;101884.41;5079400;28;20074;-55
2022/05/26 03:44:47;;;;;;;7.20;3.30;;;;;;;21.16;51.77;101887.28;5079351;28;20046;-55
2022/05/26 03:47:14;;;;;;;8.75;3.08;;;;;;;21.17;51.46;101880.03;5080778;28;20051;-54
2022/05/26 03:49:40;;;;;;;9.68;3.78;;;;;;;21.16;51.54;101887.28;5081919;28;20134;-54
2022/05/26 03:52:07;;;;;;;7.40;3.03;;;;;;;21.15;51.29;101890.97;5078485;28;20043;-53
2022/05/26 03:54:34;;;;;;;6.97;3.03;;;;;;;21.17;51.31;101888.97;5083920;28;20055;-52
2022/05/26 03:57:00;;;;;;;5.93;2.90;;;;;;;21.16;51.57;101892.66;5078787;28;20074;-53
2022/05/26 03:59:27;;;;;;;7.63;3.00;;;;;;;21.15;51.27;101899.06;5079172;28;20061;-53
2022/05/26 04:01:53;;;;;;;7.63;2.80;;;;;;;21.15;51.54;101898.22;5078301;28;20032;-54
2022/05/26 04:04:20;;;;;;;7.53;3.22;;;;;;;21.14;51.85;101891.09;5077859;28;20438;-53
2022/05/26 04:06:48;;;;;;;6.25;2.95;;;;;;;21.14;51.39;101900.03;5080377;28;20127;-55
2022/05/26 04:09:15;;;;;;;6.95;2.90;;;;;;;21.13;51.80;101903.75;5077928;28;20058;-54
2022/05/26 04:11:42;;;;;;;9.40;3.38;;;;;;;21.13;51.81;101901.03;5079210;28;20044;-55
2022/05/26 04:14:08;;;;;;;4.57;2.10;;;;;;;21.13;51.29;101910.97;5077800;28;20041;-54
2022/05/26 04:16:35;;;;;;;7.97;2.90;;;;;;;21.13;51.76;101911.81;5081959;28;20065;-54
2022/05/26 04:19:02;;;;;;;4.55;2.60;;;;;;;21.13;51.89;101916.38;5079012;28;20056;-55
2022/05/26 04:21:29;;;;;;;8.20;2.90;;;;;;;21.13;51.18;101921.75;5076891;28;20327;-53
2022/05/26 04:23:55;;;;;;;9.38;2.88;;;;;;;21.13;51.72;101928.00;5079811;28;20071;-54
2022/05/26 04:26:22;;;;;;;5.28;2.25;;;;;;;21.14;51.68;101931.53;5080023;28;20051;-55
2022/05/26 04:28:49;;;;;;;5.10;2.47;;;;;;;21.14;51.72;101935.09;5079018;28;20056;-55
2022/05/26 04:31:15;;;;;;;6.07;2.70;;;;;;;21.14;51.53;101943.16;5082960;28;20058;-54
2022/05/26 04:33:42;;;;;;;5.80;2.22;;;;;;;21.14;51.62;101937.78;5081837;28;20138;-53
2022/05/26 04:36:09;;;;;;;5.30;2.63;;;;;;;21.13;51.56;101944.19;5080523;28;20052;-53
2022/05/26 04:38:35;;;;;;;5.47;2.45;;;;;;;21.14;51.57;101947.72;5078642;28;20062;-53
2022/05/26 04:41:06;;;;;;;6.60;2.50;;;;;;;21.13;51.74;101959.50;5079744;28;20072;-53
2022/05/26 04:43:33;;;;;;;5.05;2.20;;;;;;;21.14;51.68;101951.25;5078917;28;20048;-53
2022/05/26 04:46:02;;;;;;;4.10;2.38;;;;;;;21.13;51.68;101949.56;5080105;28;20444;-54
2022/05/26 04:48:28;;;;;;;6.13;2.10;;;;;;;21.14;51.77;101945.88;5072621;28;20059;-55
2022/05/26 04:50:55;;;;;;;7.53;2.42;;;;;;;21.13;51.63;101949.56;5077413;28;20067;-55
2022/05/26 04:53:21;;;;;;;6.30;2.22;;;;;;;21.14;51.66;101950.41;5080895;28;20043;-55
2022/05/26 04:55:53;;;;;;;4.75;1.90;;;;;;;21.15;51.80;101944.03;5081506;28;20048;-54
2022/05/26 04:58:20;;;;;;;4.63;2.33;;;;;;;21.14;51.77;101962.03;5079472;28;20044;-54
2022/05/26 05:00:46;;;;;;;4.20;2.08;;;;;;;21.16;51.41;101957.38;5078398;28;20063;-53
2022/05/26 05:03:13;;;;;;;4.47;2.10;;;;;;;21.15;51.44;101965.63;5075996;28;20048;-53
2022/05/26 05:05:40;;;;;;;4.53;1.98;;;;;;;21.16;51.42;101961.91;5081374;28;20135;-54
2022/05/26 05:08:06;;;;;;;6.20;2.20;;;;;;;21.15;51.72;101963.75;5080383;28;20032;-55
2022/05/26 05:10:33;;;;;;;4.90;2.45;;;;;;;21.16;51.63;101967.31;5079626;28;20441;-54
2022/05/26 05:13:00;;;;;;;4.68;2.30;;;;;;;21.16;51.76;101978.09;5072201;28;20055;-54
2022/05/26 05:15:33;;;;;;;5.25;2.20;;;;;;;21.16;51.85;101981.63;5080407;28;20072;-53
2022/05/26 05:18:00;;;;;;;5.07;1.75;;;;;;;21.17;51.44;101983.31;5076545;28;20048;-55
2022/05/26 05:20:26;;;;;;;5.70;2.30;;;;;;;21.18;51.33;101973.38;5075859;28;20060;-53
2022/05/26 05:23:00;;;;;;;5.32;1.63;;;;;;;21.18;51.38;101990.41;5080501;28;20041;-52
2022/05/26 05:25:33;;;;;;;7.53;2.25;;;;;;;21.20;51.54;101987.59;5074965;28;20074;-54
2022/05/26 05:28:10;;;;;;;5.10;2.42;;;;;;;21.18;51.44;101993.09;5080798;28;20437;-54
2022/05/26 05:31:01;;;;;;;4.60;1.77;;;;;;;21.18;51.21;101989.56;5077029;28;20044;-54
2022/05/26 05:33:39;;;;;;;3.28;1.60;;;;;;;21.18;51.81;101993.09;5075225;28;20044;-54
2022/05/26 05:36:34;;;;;;;6.53;2.30;;;;;;;21.18;51.45;101995.81;5079356;28;20097;-53
2022/05/26 05:39:03;;;;;;;4.18;1.60;;;;;;;21.18;51.51;101994.97;5074178;28;20055;-54
2022/05/26 05:41:33;;;;;;;4.72;2.00;;;;;;;21.17;51.45;101996.81;5075498;28;20044;-54
2022/05/26 05:44:01;;;;;;;4.88;1.90;;;;;;;21.17;51.31;102007.59;5074468;28;20055;-54
2022/05/26 05:46:34;;;;;;;4.57;1.73;;;;;;;21.18;51.61;102006.59;5075662;28;20054;-54
2022/05/26 05:49:04;;;;;;;4.88;2.30;;;;;;;21.17;51.24;102006.75;5076113;28;20052;-54
2022/05/26 05:51:32;;;;;;;7.13;2.13;;;;;;;21.18;51.38;102016.53;5073351;28;20074;-52
2022/05/26 05:53:58;;;;;;;5.10;1.88;;;;;;;21.17;51.30;102017.53;5073894;28;20047;-54
2022/05/26 05:56:25;;;;;;;2.63;1.55;;;;;;;21.16;51.54;102016.69;5082882;28;20047;-53
2022/05/26 05:58:52;;;;;;;5.00;1.73;;;;;;;21.17;51.22;102010.28;5075268;28;20044;-55
2022/05/26 06:01:19;;;;;;;4.28;1.77;;;;;;;21.18;51.61;102019.22;5073396;28;20058;-55
2022/05/26 06:03:46;;;;;;;6.43;2.08;;;;;;;21.18;51.18;102025.47;5069034;28;20076;-55
2022/05/26 06:06:14;;;;;;;3.28;1.90;;;;;;;21.18;51.57;102022.75;5071304;28;21664;-55
2022/05/26 06:08:41;;;;;;;3.53;2.05;;;;;;;21.17;51.26;102026.47;5069643;28;20054;-55
2022/05/26 06:11:07;;;;;;;4.55;1.70;;;;;;;21.17;51.36;102031.84;5069388;28;20041;-55
2022/05/26 06:13:34;;;;;;;5.18;1.60;;;;;;;21.17;51.32;102031.84;5073360;28;20043;-54
2022/05/26 06:16:00;;;;;;;3.97;1.80;;;;;;;21.17;51.25;102031.00;5071501;28;20047;-55
2022/05/26 06:18:27;;;;;;;3.90;1.60;;;;;;;21.17;51.12;102037.25;5073525;28;20048;-55
2022/05/26 06:21:04;;;;;;;2.63;1.58;;;;;;;21.17;51.62;102036.41;5068631;28;20052;-55
2022/05/26 06:23:31;;;;;;;5.25;1.60;;;;;;;21.17;51.24;102034.56;5065694;28;20040;-54
2022/05/26 06:25:59;;;;;;;3.13;1.35;;;;;;;21.17;51.54;102045.34;5068412;28;20051;-55
2022/05/26 06:31:10;;;;;;;2.58;1.65;;;;;;;21.19;51.14;102048.75;5069134;28;20132;-55
2022/05/26 06:37:13;;;;;;;3.67;1.42;;;;;;;21.20;51.12;102053.16;5071171;28;20036;-55
2022/05/26 06:39:27;;;;;;;3.13;1.60;;;;;;;21.20;51.24;102058.53;5074400;28;20077;-56
2022/05/26 06:42:06;;;;;;;3.85;1.75;;;;;;;21.21;51.54;102051.28;5075127;28;20068;-54
2022/05/26 06:44:39;;;;;;;3.72;1.85;;;;;;;21.20;51.31;102057.69;5072692;28;20062;-55
2022/05/26 06:47:08;;;;;;;4.00;1.63;;;;;;;21.20;50.98;102063.94;5074991;28;20048;-53
2022/05/26 06:49:36;;;;;;;4.22;1.80;;;;;;;21.23;51.09;102070.00;5072064;28;20673;-55
2022/05/26 06:52:03;;;;;;;4.50;1.80;;;;;;;21.23;51.02;102070.00;5070815;28;20408;-55
2022/05/26 06:54:31;;;;;;;3.75;1.83;;;;;;;21.22;51.11;102071.88;5074233;28;20071;-54
2022/05/26 06:56:59;;;;;;;12.10;3.42;;;;;;;21.24;51.30;102069.03;5072782;28;20151;-55
2022/05/26 06:59:26;;;;;;;20.63;4.32;;;;;;;21.27;52.00;102079.53;5076115;28;20050;-51
2022/05/26 07:01:53;;;;;;;29.63;4.97;;;;;;;21.30;54.50;102073.84;5074496;28;20067;-54
2022/05/26 07:04:21;;;;;;;28.48;5.35;;;;;;;21.32;55.35;102074.56;5076380;28;20048;-54
2022/05/26 07:06:50;;;;;;;28.17;5.60;;;;;;;21.36;57.15;102082.25;5075253;28;20438;-54
2022/05/26 07:09:17;;;;;;;28.55;5.32;;;;;;;21.40;58.06;102091.75;5072463;28;20056;-50
2022/05/26 07:11:44;;;;;;;20.67;4.53;;;;;;;21.43;58.70;102083.38;5072512;28;20412;-50
2022/05/26 07:14:12;;;;;;;25.63;5.75;;;;;;;21.47;58.81;102094.72;5076824;28;20035;-51
2022/05/26 07:16:40;;;;;;;26.15;7.10;;;;;;;21.50;59.35;102094.41;5068347;28;20431;-51
2022/05/26 07:19:07;;;;;;;33.45;7.00;;;;;;;21.53;60.29;102098.66;5071272;28;20094;-50
2022/05/26 07:21:33;;;;;;;45.33;9.00;;;;;;;21.56;60.27;102098.38;5074872;28;20323;-50
2022/05/26 07:24:00;;;;;;;38.22;9.57;;;;;;;21.58;60.15;102093.66;5073402;28;20143;-50
2022/05/26 07:26:28;;;;;;;47.40;10.23;;;;;;;21.59;60.63;102098.94;5076426;28;20048;-51
2022/05/26 07:28:55;;;;;;;54.40;9.93;;;;;;;21.63;60.74;102094.09;5076544;28;20105;-52
2022/05/26 07:31:21;;;;;;;52.53;10.38;;;;;;;21.64;61.02;102098.50;5074657;28;20052;-51
2022/05/26 07:33:48;;;;;;;47.42;9.93;;;;;;;21.65;60.92;102101.03;5082510;28;20384;-50
2022/05/26 07:41:47;;;;;;;38.13;10.63;;;;;;;21.71;60.93;102101.44;5076788;28;20511;-49
2022/05/26 07:44:14;;;;;;;32.67;9.93;;;;;;;21.72;60.68;102100.47;5075923;28;20530;-51
2022/05/26 07:46:41;;;;;;;35.20;9.68;;;;;;;21.73;60.28;102107.56;5072249;28;20148;-49
2022/05/26 07:49:08;;;;;;;31.10;9.50;;;;;;;21.73;60.49;102103.00;5078971;28;20421;-49
2022/05/26 07:51:35;;;;;;;35.58;8.68;;;;;;;21.74;60.89;102112.78;5077999;28;20051;-48
2022/05/26 07:54:01;;;;;;;30.40;10.93;;;;;;;21.74;59.84;102107.41;5077690;28;20741;-48
2022/05/26 07:56:31;;;;;;;35.72;10.80;;;;;;;21.74;59.62;102106.56;5073824;28;20035;-48
2022/05/26 07:58:58;;;;;;;32.80;9.07;;;;;;;21.74;59.77;102110.09;5072650;28;20060;-47
2022/05/26 08:01:25;;;;;;;36.45;10.68;;;;;;;21.74;60.23;102110.09;5075897;28;20071;-51
2022/05/26 08:03:53;;;;;;;37.33;10.65;;;;;;;21.75;60.31;102114.50;5071086;28;20136;-48
2022/05/26 08:06:20;;;;;;;28.40;8.65;;;;;;;21.76;59.88;102112.66;5075172;28;20036;-49
2022/05/26 08:08:47;;;;;;;22.67;9.35;;;;;;;21.75;60.06;102116.34;5076411;28;20053;-47
2022/05/26 08:11:14;;;;;;;30.77;8.82;;;;;;;21.75;59.84;102116.34;5074669;28;20040;-47
2022/05/26 08:13:40;;;;;;;20.50;8.77;;;;;;;21.75;59.68;102121.72;5076268;28;20056;-50
2022/05/26 08:16:07;;;;;;;26.45;9.07;;;;;;;21.74;59.82;102115.50;5074534;28;20071;-47
2022/05/26 08:18:35;;;;;;;24.42;8.30;;;;;;;21.74;59.46;102118.19;5074655;28;20067;-49
2022/05/26 08:21:12;;;;;;;23.15;8.45;;;;;;;21.75;59.27;102119.03;5081136;28;20040;-47
2022/05/26 08:23:39;;;;;;;21.52;8.38;;;;;;;21.75;59.05;102117.22;5076287;28;20052;-47
2022/05/26 08:26:06;;;;;;;23.90;8.48;;;;;;;21.76;58.98;102113.50;5073508;28;20059;-49
2022/05/26 08:28:32;;;;;;;21.15;7.85;;;;;;;21.76;58.72;102109.97;5075436;28;20429;-47
2022/05/26 08:31:00;;;;;;;21.27;7.78;;;;;;;21.78;58.58;102129.53;5074335;28;20071;-47
2022/05/26 08:33:28;;;;;;;18.98;7.68;;;;;;;21.77;58.53;102126.00;5074150;28;20048;-48
2022/05/26 08:36:03;;;;;;;22.60;8.05;;;;;;;21.78;58.67;102133.09;5071925;28;20431;-49
2022/05/26 08:38:29;;;;;;;17.92;7.30;;;;;;;21.79;58.41;102139.34;5075447;28;20051;-50
2022/05/26 08:40:57;;;;;;;20.20;7.68;;;;;;;21.79;58.20;102142.03;5077729;28;20076;-51
2022/05/26 08:43:39;;;;;;;18.40;7.50;;;;;;;21.80;58.36;102146.47;5079867;28;20473;-49
2022/05/26 08:46:09;;;;;;;22.13;7.20;;;;;;;21.80;57.99;102149.16;5076031;28;20098;-49
2022/05/26 08:48:51;;;;;;;28.38;7.00;;;;;;;21.80;58.05;102157.25;5069634;28;20052;-51
2022/05/26 08:51:47;;;;;;;18.13;6.47;;;;;;;21.80;58.30;102152.69;5072340;28;20179;-51
2022/05/26 08:54:27;;;;;;;19.38;6.65;;;;;;;21.81;58.00;102154.41;5072078;28;20073;-47
2022/05/26 08:56:59;;;;;;;12.75;5.97;;;;;;;21.81;57.97;102157.09;5075771;28;20046;-49
2022/05/26 08:59:33;;;;;;;18.85;6.43;;;;;;;21.83;57.85;102156.94;5074920;28;20055;-49
2022/05/26 09:02:01;;;;;;;15.30;6.25;;;;;;;21.83;58.07;102155.13;5076647;28;20033;-49
2022/05/26 09:04:28;;;;;;;14.55;6.22;;;;;;;21.83;57.96;102156.94;5078692;28;20044;-46
2022/05/26 09:12:57;;;;;;;14.02;5.28;;;;;;;21.86;58.00;102171.00;5077641;28;20099;-48
2022/05/26 09:15:26;;;;;;;14.65;5.25;;;;;;;21.88;57.80;102166.31;5073206;28;20056;-48
2022/05/26 09:17:52;;;;;;;12.15;4.82;;;;;;;21.89;57.65;102177.97;5076352;28;20419;-49
2022/05/26 09:20:32;;;;;;;12.63;5.05;;;;;;;21.90;57.50;102179.66;5074701;28;20138;-47
2022/05/26 09:23:24;;;;;;;12.80;5.07;;;;;;;21.89;57.25;102176.09;5079145;28;20042;-48
2022/05/26 09:25:53;;;;;;;13.75;4.70;;;;;;;21.91;57.05;102186.78;5076091;28;20387;-51
2022/05/26 09:28:46;;;;;;;10.98;4.55;;;;;;;21.89;57.07;102188.75;5078685;28;20079;-51
2022/05/26 09:31:18;;;;;;;16.80;5.75;;;;;;;21.89;56.56;102186.06;5073621;28;20066;-49
2022/05/26 09:34:00;;;;;;;11.27;4.45;;;;;;;21.90;56.56;102191.28;5023060;28;20355;-46
2022/05/26 09:36:31;;;;;;;12.73;5.10;;;;;;;21.91;56.38;102187.63;4987685;28;20543;-48
2022/05/26 09:38:58;;;;;;;9.57;4.78;;;;;;;21.92;56.37;102193.88;5051251;28;20120;-47
2022/05/26 09:41:24;;;;;;;10.85;4.82;;;;;;;21.93;56.30;102187.47;5078644;28;20042;-48
2022/05/26 09:43:55;;;;;;;10.98;5.07;;;;;;;21.93;56.35;102200.97;5079010;28;20124;-51
2022/05/26 09:46:26;;;;;;;12.35;4.70;;;;;;;21.94;56.26;102208.06;5082345;28;20045;-47
2022/05/26 09:48:59;;;;;;;9.05;4.25;;;;;;;21.94;56.03;102202.66;5086426;28;20036;-49
2022/05/26 09:51:38;;;;;;;9.23;3.97;;;;;;;21.95;56.26;102207.09;5088511;28;20036;-50
2022/05/26 09:54:28;;;;;;;9.70;4.70;;;;;;;21.94;55.88;102214.31;5086932;28;20487;-46
2022/05/26 09:56:54;;;;;;;10.77;4.97;;;;;;;21.97;55.91;102215.03;5082008;28;20352;-47
2022/05/26 09:59:35;;;;;;;10.05;4.18;;;;;;;21.96;55.77;102222.28;5080397;28;20159;-47
2022/05/26 10:02:09;;;;;;;11.80;4.53;;;;;;;21.96;55.61;102224.97;5078862;28;20300;-48
2022/05/26 10:04:57;;;;;;;11.13;5.40;;;;;;;21.98;55.97;102217.56;5078662;28;20052;-51
2022/05/26 10:07:38;;;;;;;16.23;5.53;;;;;;;21.99;56.19;102211.19;5078547;28;20487;-50
2022/05/26 10:10:32;;;;;;;11.00;5.60;;;;;;;22.00;55.75;102206.63;5079535;28;20047;-47
2022/05/26 10:13:15;;;;;;;11.88;5.90;;;;;;;22.02;55.65;102210.03;5083073;28;20044;-47
2022/05/26 10:15:54;;;;;;;12.77;6.40;;;;;;;22.03;55.33;102204.50;5085882;28;20044;-47
2022/05/26 10:18:39;;;;;;;11.82;5.95;;;;;;;22.03;55.26;102211.72;5079627;28;20150;-47
2022/05/26 10:21:13;;;;;;;13.05;6.30;;;;;;;22.04;55.47;102226.94;5081388;28;20451;-47
2022/05/26 10:23:42;;;;;;;;;;;;;;;22.04;55.00;102217.00;5078194;28;20120;-51
2022/05/26 10:26:40;;;;;;;12.30;5.97;;;;;;;22.05;54.80;102209.75;5077068;28;19928;-48
2022/05/26 10:29:27;;;;;;;11.30;5.90;;;;;;;22.06;55.00;102209.59;5077674;28;20076;-46
2022/05/26 10:32:19;;;;;;;9.73;5.18;;;;;;;22.06;54.90;102222.22;5081243;28;20054;-47
2022/05/26 10:35:05;;;;;;;9.82;5.65;;;;;;;22.06;54.64;102208.72;5079959;28;20050;-49
2022/05/26 10:37:43;;;;;;;11.82;6.07;;;;;;;22.06;54.48;102217.69;5081958;28;20055;-49
2022/05/26 10:40:48;;;;;;;13.40;5.50;;;;;;;22.07;54.65;102211.31;5077026;28;20078;-51
2022/05/26 10:43:46;;;;;;;14.07;6.43;;;;;;;22.07;54.51;102208.59;5008375;28;20046;-48
2022/05/26 10:46:13;;;;;;;16.90;5.65;;;;;;;22.09;54.34;102206.59;5050715;28;20036;-50
2022/05/26 10:49:01;;;;;;;10.50;5.13;;;;;;;22.09;54.04;102209.28;5077630;28;20049;-51
2022/05/26 10:51:39;;;;;;;10.93;5.85;;;;;;;22.10;54.49;102202.03;5081430;28;20123;-49
2022/05/26 10:54:11;;;;;;;8.45;5.25;;;;;;;22.11;54.05;102207.31;5077232;28;20037;-47
2022/05/26 10:56:59;;;;;;;11.48;4.45;;;;;;;22.11;54.07;102212.72;5075394;28;20060;-47
2022/05/26 10:59:34;;;;;;;8.80;4.97;;;;;;;22.13;54.16;102218.84;5078179;28;20412;-51
2022/05/26 11:02:29;;;;;;;9.20;4.57;;;;;;;22.13;53.77;102216.13;5079813;28;20422;-49
2022/05/26 11:05:13;;;;;;;10.43;5.10;;;;;;;22.15;53.79;102211.44;5084410;28;20051;-49
2022/05/26 11:07:48;;;;;;;9.90;5.45;;;;;;;22.15;53.75;102213.28;5088802;28;20049;-48
2022/05/26 11:10:27;;;;;;;9.25;5.40;;;;;;;22.16;53.63;102202.34;5088414;28;20971;-50
2022/05/26 11:13:10;;;;;;;9.38;4.50;;;;;;;22.16;53.75;102207.75;5081954;28;20033;-46
2022/05/26 11:18:48;;;;;;;9.85;4.55;;;;;;;22.18;53.58;102183.28;5085791;28;20052;-49
2022/05/26 11:21:19;;;;;;;9.88;5.13;;;;;;;22.18;53.24;102186.81;5083472;28;20131;-47
2022/05/26 11:23:46;;;;;;;8.27;4.90;;;;;;;22.20;53.31;102197.50;5080019;28;20049;-50
2022/05/26 11:26:22;;;;;;;12.50;5.10;;;;;;;22.22;53.44;102189.25;5086834;28;20126;-47
2022/05/26 11:28:59;;;;;;;8.00;4.90;;;;;;;22.22;53.52;102190.09;5086649;28;20063;-49
2022/05/26 11:37:28;;;;;;;9.07;4.55;;;;;;;22.25;53.24;102188.94;5085964;28;20091;-51
2022/05/26 11:39:59;;;;;;;8.73;4.63;;;;;;;22.26;52.95;102196.88;5084506;28;20361;-47
2022/05/26 11:42:36;;;;;;;8.57;4.53;;;;;;;22.25;52.80;102200.59;5081315;28;20127;-48
2022/05/26 11:45:17;;;;;;;11.18;4.85;;;;;;;22.27;53.10;102204.03;5080548;28;20415;-47
2022/05/26 11:47:51;;;;;;;7.97;4.22;;;;;;;22.28;52.96;102200.31;5084193;28;20040;-47
2022/05/26 11:50:28;;;;;;;8.75;4.53;;;;;;;22.28;52.94;102199.47;5084388;28;20148;-48
2022/05/26 11:52:55;;;;;;;9.15;5.03;;;;;;;22.28;52.90;102212.97;5086503;28;20040;-51
2022/05/26 11:55:43;;;;;;;10.25;4.15;;;;;;;22.28;52.43;102230.03;5085867;28;20127;-52
2022/05/26 11:58:36;;;;;;;9.48;4.65;;;;;;;22.28;52.45;102211.13;5083659;28;20048;-51
2022/05/26 12:01:33;;;;;;;8.57;4.72;;;;;;;22.29;52.57;102217.38;5083032;28;20126;-50
2022/05/26 12:04:14;;;;;;;8.90;4.00;;;;;;;22.30;52.58;102214.50;5080707;28;20319;-53
2022/05/26 12:06:54;;;;;;;7.57;4.13;;;;;;;22.30;52.49;102219.91;5079068;28;20045;-50
2022/05/26 12:09:27;;;;;;;7.03;4.13;;;;;;;22.30;52.20;102214.50;5080967;28;20044;-51
2022/05/26 12:12:08;;;;;;;8.40;3.60;;;;;;;22.31;52.47;102209.94;5083893;28;20590;-52
2022/05/26 12:14:58;;;;;;;8.68;4.03;;;;;;;22.32;52.53;102214.38;5080854;28;20461;-51
2022/05/26 12:17:33;;;;;;;7.75;4.22;;;;;;;22.32;52.17;102211.66;5082720;28;20068;-51
2022/05/26 12:20:10;;;;;;;7.15;4.07;;;;;;;22.31;52.51;102207.25;5082225;28;20572;-49
2022/05/26 12:22:50;;;;;;;9.23;4.35;;;;;;;22.32;52.24;102206.28;5080093;28;20392;-48
2022/05/26 12:25:23;;;;;;;6.65;3.50;;;;;;;22.32;52.05;102207.13;5078416;28;20138;-51